createdAt,value
2023-04-21T00:00:10.184Z,100694.22
2023-04-21T00:02:41.726Z,100693.22
2023-04-21T00:05:12.471Z,100683.84
2023-04-21T00:07:41.644Z,100681.03
2023-04-21T00:10:10.819Z,100684.44
2023-04-21T00:12:39.463Z,100683.16
2023-04-21T00:15:10.366Z,100683.63
2023-04-21T00:17:39.150Z,100682.50
2023-04-21T00:20:09.848Z,100684.00
2023-04-21T00:22:37.925Z,100677.50
2023-04-21T00:25:07.039Z,100675.78
2023-04-21T00:27:35.329Z,100676.47
2023-04-21T00:30:03.427Z,100675.50
2023-04-21T00:32:32.861Z,100671.16
2023-04-21T00:35:01.635Z,100667.63
2023-04-21T00:37:30.010Z,100658.88
2023-04-21T00:39:58.604Z,100661.84
2023-04-21T00:42:27.003Z,100667.37
2023-04-21T00:44:55.967Z,100653.41
2023-04-21T00:47:25.496Z,100664.03
2023-04-21T00:49:55.159Z,100653.72
2023-04-21T00:52:23.429Z,100657.22
2023-04-21T00:54:51.832Z,100655.62
2023-04-21T00:57:20.318Z,100648.56
2023-04-21T00:59:49.824Z,100653.03
2023-04-21T01:02:19.972Z,100652.28
2023-04-21T01:04:49.387Z,100651.56
2023-04-21T01:07:19.001Z,100653.25
2023-04-21T01:09:46.977Z,100648.78
2023-04-21T01:12:15.346Z,100643.69
2023-04-21T01:14:43.343Z,100639.50
2023-04-21T01:17:11.936Z,100645.66
2023-04-21T01:19:43.343Z,100639.50
2023-04-21T01:22:15.309Z,100633.31
2023-04-21T01:24:44.928Z,100641.13
2023-04-21T01:27:15.063Z,100630.66
2023-04-21T01:29:44.644Z,100629.81
2023-04-21T01:32:16.624Z,100635.12
2023-04-21T01:34:46.285Z,100635.78
2023-04-21T01:37:18.619Z,100638.34
2023-04-21T01:39:48.548Z,100636.66
2023-04-21T01:42:16.646Z,100640.25
2023-04-21T01:44:47.000Z,100643.78
2023-04-21T01:47:18.532Z,100627.72
2023-04-21T01:49:47.020Z,100638.25
2023-04-21T01:52:16.932Z,100635.69
2023-04-21T01:54:45.004Z,100626.00
2023-04-21T01:57:13.262Z,100624.31
2023-04-21T01:59:41.567Z,100625.06
2023-04-21T02:02:10.062Z,100626.00
2023-04-21T02:04:38.563Z,100630.66
2023-04-21T02:07:07.308Z,100628.56
2023-04-21T02:09:36.886Z,100627.81
2023-04-21T02:12:05.704Z,100623.44
2023-04-21T02:14:33.706Z,100625.34
2023-04-21T02:17:03.615Z,100622.59
2023-04-21T02:19:32.357Z,100626.19
2023-04-21T02:22:00.517Z,100617.28
2023-04-21T02:24:28.703Z,100629.69
2023-04-21T02:26:58.642Z,100628.09
2023-04-21T02:29:29.244Z,100627.56
2023-04-21T02:32:05.173Z,100629.38
2023-04-21T02:34:33.457Z,100630.22
2023-04-21T02:37:02.416Z,100629.53
2023-04-21T02:39:30.735Z,100628.59
2023-04-21T02:42:00.541Z,100634.00
2023-04-21T02:44:28.803Z,100627.31
2023-04-21T02:46:56.752Z,100624.66
2023-04-21T02:49:24.820Z,100634.44
2023-04-21T02:51:52.976Z,100628.25
2023-04-21T02:54:20.965Z,100630.06
2023-04-21T02:56:49.220Z,100631.88
2023-04-21T02:59:19.118Z,100634.59
2023-04-21T03:01:49.181Z,100621.41
2023-04-21T03:04:17.496Z,100629.50
2023-04-21T03:06:45.640Z,100624.38
2023-04-21T03:09:13.587Z,100623.00
2023-04-21T03:11:41.830Z,100634.59
2023-04-21T03:14:09.737Z,100633.75
2023-04-21T03:16:39.052Z,100625.97
2023-04-21T03:19:07.712Z,100623.53
2023-04-21T03:21:37.976Z,100628.84
2023-04-21T03:24:07.057Z,100627.31
2023-04-21T03:26:35.507Z,100623.69
2023-04-21T03:29:03.767Z,100623.69
2023-04-21T03:31:31.800Z,100622.94
2023-04-21T03:34:01.436Z,100623.91
2023-04-21T03:36:29.522Z,100620.50
2023-04-21T03:39:05.910Z,100624.31
2023-04-21T03:41:41.336Z,100623.37
2023-04-21T03:44:10.752Z,100619.75
2023-04-21T03:46:40.192Z,100619.00
2023-04-21T03:49:09.703Z,100628.69
2023-04-21T03:51:37.652Z,100618.22
2023-04-21T03:54:05.657Z,100622.78
2023-04-21T03:56:33.851Z,100625.44
2023-04-21T03:59:01.810Z,100626.41
2023-04-21T04:01:29.753Z,100622.03
2023-04-21T04:03:58.147Z,100630.00
2023-04-21T04:06:28.446Z,100630.00
2023-04-21T04:08:56.406Z,100630.22
2023-04-21T04:11:24.601Z,100627.56
2023-04-21T04:13:52.666Z,100630.22
2023-04-21T04:16:20.774Z,100627.63
2023-04-21T04:18:50.981Z,100626.72
2023-04-21T04:21:18.938Z,100625.75
2023-04-21T04:23:48.278Z,100628.31
2023-04-21T04:26:16.635Z,100628.97
2023-04-21T04:28:44.589Z,100629.16
2023-04-21T04:31:13.703Z,100626.09
2023-04-21T04:33:43.095Z,100630.37
2023-04-21T04:36:11.883Z,100634.75
2023-04-21T04:38:40.314Z,100632.84
2023-04-21T04:41:09.885Z,100631.88
2023-04-21T04:43:39.119Z,100629.34
2023-04-21T04:46:09.089Z,100636.81
2023-04-21T04:48:37.506Z,100640.22
2023-04-21T04:51:05.749Z,100634.34
2023-04-21T04:53:33.683Z,100633.84
2023-04-21T04:56:02.152Z,100637.25
2023-04-21T04:58:31.464Z,100641.34
2023-04-21T05:00:59.508Z,100642.00
2023-04-21T05:03:27.932Z,100645.31
2023-04-21T05:05:57.585Z,100643.22
2023-04-21T05:08:25.732Z,100647.28
2023-04-21T05:10:53.971Z,100647.19
2023-04-21T05:13:21.956Z,100643.06
2023-04-21T05:15:51.200Z,100645.62
2023-04-21T05:18:19.428Z,100646.38
2023-04-21T05:20:47.322Z,100653.22
2023-04-21T05:23:15.302Z,100655.66
2023-04-21T05:25:43.405Z,100652.50
2023-04-21T05:28:11.545Z,100650.37
2023-04-21T05:30:39.436Z,100651.97
2023-04-21T05:33:09.407Z,100656.59
2023-04-21T05:35:38.136Z,100657.25
2023-04-21T05:38:07.115Z,100648.69
2023-04-21T05:40:35.316Z,100655.28
2023-04-21T05:43:03.367Z,100657.53
2023-04-21T05:45:31.354Z,100655.41
2023-04-21T05:47:59.537Z,100651.38
2023-04-21T05:50:33.982Z,100653.63
2023-04-21T05:53:03.155Z,100651.19
2023-04-21T05:55:31.257Z,100648.72
2023-04-21T05:57:59.230Z,100653.53
2023-04-21T06:00:29.208Z,100656.91
2023-04-21T06:02:58.099Z,100648.16
2023-04-21T06:05:26.265Z,100653.69
2023-04-21T06:07:55.650Z,100654.31
2023-04-21T06:10:23.982Z,100657.94
2023-04-21T06:12:51.902Z,100649.59
2023-04-21T06:15:19.979Z,100655.38
2023-04-21T06:17:48.161Z,100655.75
2023-04-21T06:20:17.801Z,100657.75
2023-04-21T06:22:45.763Z,100653.91
2023-04-21T06:25:15.416Z,100655.03
2023-04-21T06:27:45.555Z,100650.50
2023-04-21T06:30:14.798Z,100652.78
2023-04-21T06:32:42.956Z,100646.72
2023-04-21T06:35:11.002Z,100648.97
2023-04-21T06:37:39.289Z,100645.28
2023-04-21T06:40:08.202Z,100643.31
2023-04-21T06:42:37.580Z,100636.09
2023-04-21T06:45:07.131Z,100637.19
2023-04-21T06:47:35.136Z,100645.09
2023-04-21T06:50:03.114Z,100633.94
2023-04-21T06:52:31.476Z,100644.28
2023-04-21T06:54:59.462Z,100643.16
2023-04-21T06:57:27.472Z,100641.56
2023-04-21T06:59:57.014Z,100640.00
2023-04-21T07:02:25.069Z,100640.09
2023-04-21T07:04:53.163Z,100632.69
2023-04-21T07:07:21.425Z,100635.31
2023-04-21T07:09:49.415Z,100636.59
2023-04-21T07:12:17.514Z,100630.84
2023-04-21T07:14:45.780Z,100634.97
2023-04-21T07:17:15.292Z,100635.59
2023-04-21T07:19:43.350Z,100623.13
2023-04-21T07:22:11.633Z,100625.06
2023-04-21T07:24:39.646Z,100630.66
2023-04-21T07:27:07.642Z,100624.94
2023-04-21T07:29:37.277Z,100629.97
2023-04-21T07:32:05.539Z,100622.34
2023-04-21T07:34:34.761Z,100632.25
2023-04-21T07:37:03.055Z,100626.50
2023-04-21T07:39:31.036Z,100621.69
2023-04-21T07:42:01.541Z,100623.22
2023-04-21T07:44:30.082Z,100623.53
2023-04-21T07:46:58.361Z,100617.00
2023-04-21T07:49:26.426Z,100618.38
2023-04-21T07:51:56.036Z,100613.97
2023-04-21T07:54:24.128Z,100619.47
2023-04-21T07:56:52.067Z,100613.47
2023-04-21T07:59:20.515Z,100613.34
2023-04-21T08:01:48.643Z,100626.03
2023-04-21T08:04:17.058Z,100614.84
2023-04-21T08:06:45.348Z,100611.44
2023-04-21T08:09:14.960Z,100609.22
2023-04-21T08:11:43.303Z,100610.94
2023-04-21T08:14:11.925Z,100613.66
2023-04-21T08:16:40.574Z,100607.56
2023-04-21T08:19:08.992Z,100600.44
2023-04-21T08:21:37.566Z,100601.28
2023-04-21T08:24:06.313Z,100602.81
2023-04-21T08:26:36.151Z,100606.34
2023-04-21T08:29:07.294Z,100615.31
2023-04-21T08:31:36.372Z,100601.28
2023-04-21T08:34:04.618Z,100604.84
2023-04-21T08:36:32.710Z,100608.78
2023-04-21T08:39:01.600Z,100601.81
2023-04-21T08:41:29.651Z,100601.25
2023-04-21T08:43:59.131Z,100602.34
2023-04-21T08:46:29.131Z,100599.06
2023-04-21T08:48:59.634Z,100598.25
2023-04-21T08:51:30.192Z,100602.84
2023-04-21T08:53:58.590Z,100601.69
2023-04-21T08:56:27.246Z,100602.19
2023-04-21T08:58:55.606Z,100595.59
2023-04-21T09:01:25.212Z,100592.41
2023-04-21T09:03:53.560Z,100593.41
2023-04-21T09:06:43.599Z,100595.72
2023-04-21T09:09:11.787Z,100598.28
2023-04-21T09:11:42.939Z,100598.09
2023-04-21T09:14:12.526Z,100594.03
2023-04-21T09:16:44.571Z,100595.22
2023-04-21T09:19:16.261Z,100595.41
2023-04-21T09:21:45.528Z,100594.56
2023-04-21T09:24:14.113Z,100590.03
2023-04-21T09:26:43.836Z,100587.88
2023-04-21T09:29:12.659Z,100582.47
2023-04-21T09:31:42.348Z,100590.41
2023-04-21T09:34:19.749Z,100584.81
2023-04-21T09:36:48.554Z,100580.06
2023-04-21T09:41:48.980Z,100575.66
2023-04-21T09:44:18.099Z,100569.72
2023-04-21T09:46:50.728Z,100568.19
2023-04-21T09:49:19.666Z,100566.81
2023-04-21T09:56:57.721Z,100555.94
2023-04-21T09:59:30.366Z,100560.53
2023-04-21T10:02:01.448Z,100548.78
2023-04-21T10:04:33.213Z,100561.19
2023-04-21T10:07:02.116Z,100553.25
2023-04-21T10:09:41.314Z,100549.19
2023-04-21T10:12:13.677Z,100557.47
2023-04-21T10:14:42.236Z,100552.41
2023-04-21T10:17:12.098Z,100540.38
2023-04-21T10:19:50.198Z,100538.00
2023-04-21T10:22:28.778Z,100544.97
2023-04-21T10:24:57.214Z,100547.66
2023-04-21T10:27:37.058Z,100536.09
2023-04-21T10:30:20.399Z,100540.25
2023-04-21T10:33:02.879Z,100536.06
2023-04-21T10:36:02.801Z,100539.50
2023-04-21T10:38:35.199Z,100531.38
2023-04-21T10:41:27.407Z,100524.16
2023-04-21T10:43:59.013Z,100524.41
2023-04-21T10:46:34.908Z,100525.81
2023-04-21T10:49:09.109Z,100522.34
2023-04-21T10:52:16.252Z,100522.50
2023-04-21T10:55:05.240Z,100517.72
2023-04-21T10:57:35.523Z,100523.81
2023-04-21T11:00:07.189Z,100523.88
2023-04-21T11:02:39.083Z,100514.19
2023-04-21T11:05:11.555Z,100503.81
2023-04-21T11:07:39.646Z,100509.13
2023-04-21T11:10:10.080Z,100505.66
2023-04-21T11:12:40.555Z,100504.06
2023-04-21T11:15:10.978Z,100501.34
2023-04-21T11:17:43.187Z,100498.00
2023-04-21T11:20:12.796Z,100494.87
2023-04-21T11:22:41.073Z,100489.34
2023-04-21T11:25:18.585Z,100475.97
2023-04-21T11:27:55.609Z,100483.56
2023-04-21T11:30:31.699Z,100483.88
2023-04-21T11:33:00.023Z,100475.69
2023-04-21T11:35:29.515Z,100477.59
2023-04-21T11:37:57.807Z,100466.16
2023-04-21T11:40:26.179Z,100472.88
2023-04-21T11:42:54.467Z,100469.41
2023-04-21T11:45:22.884Z,100460.34
2023-04-21T11:47:51.520Z,100471.94
2023-04-21T11:50:33.259Z,100460.03
2023-04-21T11:53:03.490Z,100463.59
2023-04-21T11:55:31.454Z,100454.81
2023-04-21T11:57:59.505Z,100466.16
2023-04-21T12:00:31.829Z,100452.75
2023-04-21T12:03:00.256Z,100448.97
2023-04-21T12:05:37.504Z,100446.00
2023-04-21T12:08:06.448Z,100447.88
2023-04-21T12:10:34.822Z,100451.13
2023-04-21T12:13:03.062Z,100445.69
2023-04-21T12:15:31.908Z,100447.59
2023-04-21T12:17:59.982Z,100449.59
2023-04-21T12:20:30.835Z,100447.94
2023-04-21T12:23:01.134Z,100442.97
2023-04-21T12:25:29.572Z,100445.97
2023-04-21T12:27:59.697Z,100448.88
2023-04-21T12:30:28.194Z,100440.47
2023-04-21T12:32:56.336Z,100432.09
2023-04-21T12:35:24.917Z,100426.84
2023-04-21T12:37:53.359Z,100436.69
2023-04-21T12:40:23.126Z,100437.28
2023-04-21T12:42:51.347Z,100423.25
2023-04-21T12:45:19.801Z,100419.94
2023-04-21T12:47:47.976Z,100423.09
2023-04-21T12:50:16.953Z,100414.19
2023-04-21T12:52:45.796Z,100410.56
2023-04-21T12:55:14.438Z,100421.47
2023-04-21T12:57:43.974Z,100413.81
2023-04-21T13:00:14.888Z,100410.84
2023-04-21T13:02:43.353Z,100409.41
2023-04-21T13:05:12.836Z,100412.91
2023-04-21T13:07:41.567Z,100409.00
2023-04-21T13:10:10.427Z,100407.84
2023-04-21T13:12:38.483Z,100407.97
2023-04-21T13:15:09.695Z,100404.81
2023-04-21T13:17:37.711Z,100399.81
2023-04-21T13:20:07.267Z,100401.91
2023-04-21T13:22:36.358Z,100403.00
2023-04-21T13:25:04.716Z,100395.41
2023-04-21T13:27:33.413Z,100403.47
2023-04-21T13:30:01.888Z,100386.59
2023-04-21T13:32:31.265Z,100382.81
2023-04-21T13:34:59.226Z,100386.59
2023-04-21T13:37:27.638Z,100377.53
2023-04-21T13:39:55.809Z,100375.16
2023-04-21T13:42:23.809Z,100372.81
2023-04-21T13:44:52.151Z,100368.84
2023-04-21T13:47:20.387Z,100365.97
2023-04-21T13:49:50.121Z,100362.44
2023-04-21T13:52:18.522Z,100355.63
2023-04-21T13:54:50.704Z,100360.22
2023-04-21T13:57:19.907Z,100343.53
2023-04-21T13:59:48.578Z,100342.47
2023-04-21T14:02:16.921Z,100343.09
2023-04-21T14:04:45.478Z,100339.41
2023-04-21T14:07:17.978Z,100334.53
2023-04-21T14:09:46.423Z,100337.81
2023-04-21T14:12:14.377Z,100327.59
2023-04-21T14:14:42.409Z,100317.81
2023-04-21T14:17:10.812Z,100324.69
2023-04-21T14:19:38.864Z,100323.03
2023-04-21T14:22:06.925Z,100311.47
2023-04-21T14:24:36.426Z,100314.47
2023-04-21T14:27:04.599Z,100310.47
2023-04-21T14:29:32.911Z,100305.03
2023-04-21T14:32:01.463Z,100293.31
2023-04-21T14:34:29.521Z,100304.69
2023-04-21T14:36:58.136Z,100293.53
2023-04-21T14:39:26.457Z,100297.97
2023-04-21T14:41:55.852Z,100298.75
2023-04-21T14:44:23.820Z,100293.16
2023-04-21T14:47:05.406Z,100298.84
2023-04-21T14:49:38.188Z,100294.78
2023-04-21T14:52:07.162Z,100287.28
2023-04-21T14:54:35.396Z,100282.22
2023-04-21T14:57:18.796Z,100285.94
2023-04-21T14:59:50.527Z,100280.91
2023-04-21T15:02:19.162Z,100274.94
2023-04-21T15:04:47.737Z,100269.03
2023-04-21T15:07:19.935Z,100276.19
2023-04-21T15:09:51.373Z,100278.59
2023-04-21T15:12:21.037Z,100269.25
2023-04-21T15:14:49.333Z,100264.63
2023-04-21T15:17:17.516Z,100263.06
2023-04-21T15:19:46.004Z,100257.47
2023-04-21T15:22:15.160Z,100250.97
2023-04-21T15:24:43.690Z,100253.91
2023-04-21T15:27:12.001Z,100255.09
2023-04-21T15:29:41.395Z,100251.44
2023-04-21T15:32:09.598Z,100248.72
2023-04-21T15:34:37.842Z,100249.97
2023-04-21T15:37:05.955Z,100250.59
2023-04-21T15:39:34.307Z,100243.59
2023-04-21T15:42:04.396Z,100251.66
2023-04-21T15:44:33.895Z,100247.03
2023-04-21T15:47:03.876Z,100247.06
2023-04-21T15:49:31.976Z,100229.91
2023-04-21T15:52:00.167Z,100230.37
2023-04-21T15:54:28.772Z,100232.69
2023-04-21T15:56:57.721Z,100223.50
2023-04-21T15:59:26.357Z,100226.72
2023-04-21T16:01:56.771Z,100224.41
2023-04-21T16:04:26.653Z,100224.69
2023-04-21T16:06:54.986Z,100221.66
2023-04-21T16:09:23.743Z,100218.09
2023-04-21T16:11:52.060Z,100222.78
2023-04-21T16:14:20.393Z,100222.41
2023-04-21T16:16:48.457Z,100219.03
2023-04-21T16:19:17.383Z,100218.28
2023-04-21T16:21:46.821Z,100217.38
2023-04-21T16:24:14.991Z,100211.97
2023-04-21T16:26:43.305Z,100209.38
2023-04-21T16:29:11.706Z,100206.09
2023-04-21T16:31:39.853Z,100200.75
2023-04-21T16:34:08.420Z,100204.84
2023-04-21T16:36:37.084Z,100199.50
2023-04-21T16:39:06.701Z,100198.84
2023-04-21T16:41:35.101Z,100194.91
2023-04-21T16:44:03.575Z,100190.81
2023-04-21T16:46:31.562Z,100192.00
2023-04-21T16:49:00.024Z,100185.72
2023-04-21T16:51:28.628Z,100189.75
2023-04-21T16:53:56.666Z,100186.94
2023-04-21T16:56:26.323Z,100187.72
2023-04-21T16:58:54.500Z,100190.75
2023-04-21T17:01:22.507Z,100191.81
2023-04-21T17:03:50.893Z,100186.22
2023-04-21T17:06:21.123Z,100191.44
2023-04-21T17:08:49.570Z,100189.41
2023-04-21T17:11:17.929Z,100191.53
2023-04-21T17:13:47.333Z,100190.00
2023-04-21T17:16:15.835Z,100187.03
2023-04-21T17:18:44.109Z,100184.03
2023-04-21T17:21:12.574Z,100193.50
2023-04-21T17:23:40.896Z,100190.25
2023-04-21T17:26:12.267Z,100183.75
2023-04-21T17:28:40.976Z,100187.19
2023-04-21T17:31:15.783Z,100181.53
2023-04-21T17:33:52.490Z,100182.59
2023-04-21T17:36:20.798Z,100182.28
2023-04-21T17:38:48.850Z,100173.03
2023-04-21T17:41:16.842Z,100175.75
2023-04-21T17:43:45.017Z,100180.16
2023-04-21T17:46:14.490Z,100180.25
2023-04-21T17:48:42.623Z,100188.69
2023-04-21T17:51:11.764Z,100182.72
2023-04-21T17:53:39.744Z,100186.16
2023-04-21T17:56:08.173Z,100184.44
2023-04-21T17:58:36.585Z,100174.62
2023-04-21T18:01:04.703Z,100186.50
2023-04-21T18:03:36.159Z,100184.53
2023-04-21T18:06:04.826Z,100182.53
2023-04-21T18:08:33.096Z,100187.56
2023-04-21T18:11:01.157Z,100182.47
2023-04-21T18:13:29.158Z,100183.81
2023-04-21T18:15:57.776Z,100175.56
2023-04-21T18:18:27.106Z,100186.59
2023-04-21T18:20:56.830Z,100188.75
2023-04-21T18:23:25.104Z,100178.94
2023-04-21T18:25:53.808Z,100189.50
2023-04-21T18:28:22.291Z,100192.50
2023-04-21T18:30:51.292Z,100184.69
2023-04-21T18:33:23.263Z,100188.28
2023-04-21T18:35:52.974Z,100187.13
2023-04-21T18:38:23.370Z,100192.59
2023-04-21T18:40:54.161Z,100191.53
2023-04-21T18:43:22.277Z,100197.22
2023-04-21T18:45:50.422Z,100195.84
2023-04-21T18:48:18.828Z,100199.00
2023-04-21T18:50:46.930Z,100196.09
2023-04-21T18:53:15.104Z,100190.66
2023-04-21T18:55:45.645Z,100201.44
2023-04-21T18:58:13.831Z,100204.09
2023-04-21T19:00:42.173Z,100203.59
2023-04-21T19:03:11.564Z,100199.97
2023-04-21T19:05:40.693Z,100196.63
2023-04-21T19:08:10.196Z,100198.03
2023-04-21T19:10:39.064Z,100199.72
2023-04-21T19:13:08.374Z,100200.72
2023-04-21T19:15:36.687Z,100204.25
2023-04-21T19:18:05.344Z,100205.38
2023-04-21T19:20:35.603Z,100200.31
2023-04-21T19:23:03.816Z,100211.34
2023-04-21T19:25:32.180Z,100202.91
2023-04-21T19:28:01.196Z,100214.47
2023-04-21T19:30:30.607Z,100204.13
2023-04-21T19:32:59.121Z,100203.00
2023-04-21T19:35:28.106Z,100206.53
2023-04-21T19:37:56.414Z,100199.94
2023-04-21T19:40:24.759Z,100201.22
2023-04-21T19:42:52.761Z,100199.69
2023-04-21T19:45:20.851Z,100205.47
2023-04-21T19:47:50.796Z,100200.53
2023-04-21T19:50:19.247Z,100201.94
2023-04-21T19:52:47.472Z,100207.28
2023-04-21T19:55:16.278Z,100205.59
2023-04-21T19:57:44.362Z,100204.22
2023-04-21T20:00:14.091Z,100200.09
2023-04-21T20:02:43.078Z,100213.63
2023-04-21T20:05:12.920Z,100212.91
2023-04-21T20:07:40.980Z,100209.94
2023-04-21T20:10:10.590Z,100202.47
2023-04-21T20:12:38.771Z,100214.03
2023-04-21T20:15:08.193Z,100206.69
2023-04-21T20:17:36.956Z,100212.47
2023-04-21T20:20:06.468Z,100206.69
2023-04-21T20:22:36.112Z,100211.47
2023-04-21T20:25:04.875Z,100201.16
2023-04-21T20:27:33.035Z,100205.22
2023-04-21T20:30:01.430Z,100197.44
2023-04-21T20:32:30.380Z,100200.97
2023-04-21T20:34:59.637Z,100202.34
2023-04-21T20:37:27.810Z,100211.50
2023-04-21T20:40:01.558Z,100204.19
2023-04-21T20:42:29.964Z,100207.84
2023-04-21T20:45:02.089Z,100212.50
2023-04-21T20:47:30.492Z,100217.13
2023-04-21T20:49:59.229Z,100221.03
2023-04-21T20:52:27.355Z,100223.00
2023-04-21T20:54:56.871Z,100223.28
2023-04-21T20:57:27.285Z,100225.22
2023-04-21T20:59:55.568Z,100224.78
2023-04-21T21:02:23.733Z,100224.06
2023-04-21T21:04:52.202Z,100231.25
2023-04-21T21:07:20.199Z,100221.62
2023-04-21T21:09:48.301Z,100230.06
2023-04-21T21:12:18.098Z,100228.75
2023-04-21T21:14:46.319Z,100231.84
2023-04-21T21:17:16.599Z,100230.41
2023-04-21T21:19:44.987Z,100235.44
2023-04-21T21:22:13.096Z,100234.25
2023-04-21T21:24:41.246Z,100236.41
2023-04-21T21:27:09.642Z,100237.91
2023-04-21T21:29:39.199Z,100246.56
2023-04-21T21:32:07.571Z,100235.56
2023-04-21T21:34:35.908Z,100240.31
2023-04-21T21:37:04.420Z,100243.13
2023-04-21T21:39:32.417Z,100247.72
2023-04-21T21:42:00.806Z,100245.31
2023-04-21T21:44:28.984Z,100247.25
2023-04-21T21:46:58.508Z,100250.31
2023-04-21T21:49:26.820Z,100252.22
2023-04-21T21:51:54.933Z,100247.41
2023-04-21T21:54:23.067Z,100250.41
2023-04-21T21:56:51.471Z,100254.31
2023-04-21T21:59:19.545Z,100249.25
2023-04-21T22:01:47.840Z,100252.12
2023-04-21T22:04:17.707Z,100249.84
2023-04-21T22:06:46.345Z,100256.16
2023-04-21T22:09:14.382Z,100258.75
2023-04-21T22:11:42.675Z,100257.31
2023-04-21T22:14:22.029Z,100256.56
2023-04-21T22:16:53.070Z,100254.88
2023-04-21T22:19:22.865Z,100254.37
2023-04-21T22:21:50.948Z,100249.28
2023-04-21T22:24:19.452Z,100245.06
2023-04-21T22:26:47.911Z,100248.19
2023-04-21T22:29:16.018Z,100248.62
2023-04-21T22:31:44.781Z,100251.66
2023-04-21T22:34:15.077Z,100251.66
2023-04-21T22:36:44.562Z,100255.03
2023-04-21T22:39:13.032Z,100253.59
2023-04-21T22:41:41.123Z,100259.75
2023-04-21T22:44:09.151Z,100252.69
2023-04-21T22:46:37.912Z,100255.72
2023-04-21T22:49:05.979Z,100259.38
2023-04-21T22:51:34.370Z,100256.09
2023-04-21T22:54:04.336Z,100261.41
2023-04-21T22:56:34.867Z,100256.66
2023-04-21T22:59:03.357Z,100256.91
2023-04-21T23:01:32.179Z,100257.00
2023-04-21T23:04:00.697Z,100247.31
2023-04-21T23:06:29.448Z,100243.91
2023-04-21T23:08:57.529Z,100256.38
2023-04-21T23:11:26.929Z,100248.50
2023-04-21T23:13:55.335Z,100245.84
2023-04-21T23:16:23.763Z,100239.69
2023-04-21T23:18:51.813Z,100252.25
2023-04-21T23:21:20.293Z,100246.94
2023-04-21T23:23:48.329Z,100252.47
2023-04-21T23:26:16.487Z,100243.03
2023-04-21T23:28:46.213Z,100251.13
2023-04-21T23:31:14.518Z,100249.75
2023-04-21T23:33:42.782Z,100241.03
2023-04-21T23:36:11.277Z,100246.59
2023-04-21T23:38:39.554Z,100245.94
2023-04-21T23:41:07.796Z,100242.66
2023-04-21T23:43:37.250Z,100246.50
2023-04-21T23:46:06.789Z,100238.72
2023-04-21T23:48:35.207Z,100238.97
2023-04-21T23:51:03.698Z,100235.69
2023-04-21T23:53:31.828Z,100232.38
2023-04-21T23:55:59.984Z,100233.59
2023-04-21T23:58:28.499Z,100241.69
